首页
METAR-TAF:

METAR-TAF

机场 :

里尔, 法国

纬度: 50-34N, 经度: 003-06E, 海拔: 48米

当前天气观测

该预报发布于33分钟前的16:30 UTC
风速9节,风向南转西南,在西转西南之间变化
温度 13°C
湿度 77%
气压 997 hPa
能见度10公里或以上

METAR: LFQQ 051630Z AUTO 21009KT 180V240 9999 ///TCU 13/09 Q0997 TEMPO 2000 TSRA BKN025CB

时间: 19:03 (17:03 UTC)

预报

该预报发布于6小时和3分钟前的11:00 UTC
预报有效从05日的 12点(UTC)到 06日的 18点(UTC)
风速13节,风向西
能见度10公里或以上
散云层高于2500英尺
短暂存在
从 05日的 12点(UTC)到 05日的 16点(UTC)
风速20节,风向西转西北,有时为30节阵风
短暂存在
从 05日的 12点(UTC)到 05日的 22点(UTC)
能見度: 4000
多云层高于2500英尺, 积雨云.
阵雨
几率 40% :
短暂存在
从 05日的 14点(UTC)到 05日的 20点(UTC)
能見度: 2000
雷暴, 雨
成为
从 06日的 09点(UTC)到 06日的 11点(UTC)
风速20节,风向西转西南,有时为30节阵风

TAF: LFQQ 051100Z 0512/0618 27013KT 9999 SCT025 TEMPO 0512/0516 29020G30KT TEMPO 0512/0522 4000 SHRA BKN025CB PROB40 TEMPO 0514/0520 2000 TSRA BECMG 0609/0611 25020G30KT

超过4000个机场的气象观测和天气预报(METAR&TAF报告)。

可查询的气象台以黄色和红色小点在地图上表示。

将鼠标移到小点上方,可查看气象台名称。

然后点击查看天气观测和预报。

如需切换地图:点击带黑十字的绿色按钮放大地图;点击带横线的绿色按钮缩小地图;或者点击绿色箭头查看邻近地区的地图。


METAR-TAF: